Time;durP1;ratioP1;P1;durP2;ratioP2;P2;SDS_P1;SDS_P2;PMS_P1;PMS_P2;Temp;Humidity;BMP_temperature;BMP_pressure;BME280_temperature;BME280_humidity;BME280_pressure;Samples;Min_cycle;Max_cycle;Signal;HPM_P1;HPM_P2
2021/09/13 00:02:07;;;;;;;8.90;8.10;;;22.70;96.70;;;;;;4974242;28;20045;-74
2021/09/13 00:04:36;;;;;;;8.77;7.97;;;22.70;96.70;;;;;;4964074;28;20042;-73
2021/09/13 00:07:05;;;;;;;8.95;7.82;;;22.60;96.70;;;;;;4964527;28;20285;-74
2021/09/13 00:09:33;;;;;;;8.68;7.88;;;22.60;96.70;;;;;;4954868;28;20461;-74
2021/09/13 00:12:01;;;;;;;8.77;7.80;;;22.60;96.70;;;;;;4970901;28;20038;-74
2021/09/13 00:14:32;;;;;;;8.52;7.72;;;22.60;96.70;;;;;;4958812;28;20042;-74
2021/09/13 00:17:01;;;;;;;8.73;7.93;;;22.70;96.70;;;;;;4963597;28;20465;-74
2021/09/13 00:19:29;;;;;;;9.70;8.50;;;22.70;96.70;;;;;;4955902;28;20043;-74
2021/09/13 00:21:59;;;;;;;10.60;8.00;;;22.80;96.70;;;;;;4964153;28;20047;-74
2021/09/13 00:24:28;;;;;;;9.63;8.73;;;22.80;96.70;;;;;;4948724;28;20524;-74
2021/09/13 00:26:57;;;;;;;9.50;8.57;;;22.90;96.70;;;;;;4963129;28;20085;-73
2021/09/13 00:29:27;;;;;;;9.90;9.00;;;22.90;96.70;;;;;;4963466;28;20042;-74
2021/09/13 00:31:57;;;;;;;9.43;8.60;;;22.80;96.70;;;;;;4973538;28;20050;-74
2021/09/13 00:34:29;;;;;;;10.57;9.45;;;22.80;96.70;;;;;;4957615;28;20087;-74
2021/09/13 00:36:58;;;;;;;9.80;8.80;;;22.80;96.70;;;;;;4955380;28;20039;-74
2021/09/13 00:39:28;;;;;;;10.05;8.48;;;22.80;96.70;;;;;;4957488;28;20055;-74
2021/09/13 00:41:57;;;;;;;9.85;8.85;;;22.80;96.70;;;;;;4959401;28;20134;-74
2021/09/13 00:44:25;;;;;;;10.18;9.10;;;22.70;96.70;;;;;;4954267;28;20476;-74
2021/09/13 00:46:55;;;;;;;9.35;8.45;;;22.70;96.70;;;;;;4961966;28;20057;-74
2021/09/13 00:49:26;;;;;;;11.10;9.38;;;22.70;96.70;;;;;;4963520;28;20059;-74
2021/09/13 00:51:54;;;;;;;10.68;8.57;;;22.70;96.70;;;;;;4961753;28;20063;-74
2021/09/13 00:54:23;;;;;;;8.75;7.95;;;22.60;96.70;;;;;;4962168;28;20073;-74
2021/09/13 00:56:52;;;;;;;9.30;8.50;;;22.60;96.70;;;;;;4960144;28;20689;-74
2021/09/13 00:59:20;;;;;;;10.43;9.43;;;22.50;96.70;;;;;;4949094;28;20058;-74
2021/09/13 01:01:48;;;;;;;10.52;9.40;;;22.60;96.70;;;;;;4941784;28;20047;-74
2021/09/13 01:04:17;;;;;;;10.07;9.18;;;22.60;96.70;;;;;;4974387;28;20536;-74
2021/09/13 01:06:47;;;;;;;10.40;9.40;;;22.60;96.70;;;;;;4963584;28;20537;-74
2021/09/13 01:09:16;;;;;;;10.38;9.35;;;22.50;96.70;;;;;;4961147;28;20051;-74
2021/09/13 01:11:44;;;;;;;9.80;9.00;;;22.60;96.70;;;;;;4960785;28;20051;-74
2021/09/13 01:14:15;;;;;;;10.20;9.20;;;22.60;96.70;;;;;;4975852;28;20480;-74
2021/09/13 01:16:43;;;;;;;9.20;8.27;;;22.40;96.70;;;;;;4961459;28;20493;-73
2021/09/13 01:19:11;;;;;;;9.57;8.57;;;22.30;96.70;;;;;;4959763;28;20417;-74
2021/09/13 01:21:43;;;;;;;10.07;9.23;;;22.30;96.70;;;;;;4958577;28;20055;-74
2021/09/13 01:24:12;;;;;;;9.93;8.98;;;22.10;96.70;;;;;;4948536;28;20059;-74
2021/09/13 01:26:41;;;;;;;9.95;8.95;;;22.10;96.70;;;;;;4959053;28;20051;-74
2021/09/13 01:29:11;;;;;;;11.35;9.07;;;22.00;96.70;;;;;;4978757;28;20046;-74
2021/09/13 01:31:39;;;;;;;10.60;9.38;;;22.00;96.70;;;;;;4959979;28;20148;-74
2021/09/13 01:34:07;;;;;;;9.93;9.13;;;22.00;96.70;;;;;;4952695;28;20051;-74
2021/09/13 01:36:36;;;;;;;9.95;9.13;;;21.90;96.70;;;;;;4963992;28;20050;-75
2021/09/13 01:39:09;;;;;;;10.27;9.13;;;21.90;96.70;;;;;;4963295;28;20047;-73
2021/09/13 01:41:40;;;;;;;9.48;8.57;;;21.80;96.70;;;;;;4956562;28;20047;-73
2021/09/13 01:44:11;;;;;;;8.98;8.18;;;21.80;96.70;;;;;;4961575;28;20345;-74
2021/09/13 01:46:41;;;;;;;10.57;8.15;;;21.80;96.70;;;;;;4959465;28;20051;-74
2021/09/13 01:49:11;;;;;;;9.05;8.25;;;21.70;96.70;;;;;;4957321;28;20046;-74
2021/09/13 01:51:40;;;;;;;9.48;8.18;;;21.70;96.70;;;;;;4959092;28;20574;-74
2021/09/13 01:54:08;;;;;;;8.73;7.90;;;21.70;96.70;;;;;;4962267;28;20540;-74
2021/09/13 01:56:37;;;;;;;8.05;7.35;;;21.80;96.70;;;;;;4966814;28;20046;-74
2021/09/13 01:59:14;;;;;;;9.95;7.88;;;21.70;96.70;;;;;;4955615;28;20042;-74
2021/09/13 02:01:42;;;;;;;8.02;7.43;;;21.70;96.70;;;;;;4961826;28;20051;-73
2021/09/13 02:04:11;;;;;;;9.30;7.78;;;21.60;96.70;;;;;;4953846;28;20074;-73
2021/09/13 02:06:39;;;;;;;8.68;7.88;;;21.70;96.70;;;;;;4965249;28;20047;-74
2021/09/13 02:09:07;;;;;;;8.38;7.60;;;21.70;96.70;;;;;;4949796;28;20420;-73
2021/09/13 02:11:36;;;;;;;8.50;7.53;;;21.70;96.70;;;;;;4962239;28;20074;-74
2021/09/13 02:14:07;;;;;;;8.43;7.72;;;21.70;96.70;;;;;;4958625;28;20051;-74
2021/09/13 02:16:36;;;;;;;9.13;7.90;;;21.70;96.70;;;;;;4962511;28;20481;-74
2021/09/13 02:19:09;;;;;;;8.98;8.18;;;21.60;96.70;;;;;;4945857;28;20059;-74
2021/09/13 02:21:37;;;;;;;8.30;7.55;;;21.60;96.70;;;;;;4981529;28;20077;-74
2021/09/13 02:24:06;;;;;;;8.35;7.55;;;21.60;96.70;;;;;;4959437;28;20046;-74
2021/09/13 02:26:35;;;;;;;8.35;7.65;;;21.60;96.70;;;;;;4946165;28;20505;-74
2021/09/13 02:29:03;;;;;;;9.50;8.52;;;21.60;96.70;;;;;;4959311;28;20043;-73
2021/09/13 02:31:32;;;;;;;10.02;9.07;;;21.60;96.70;;;;;;4961878;28;20050;-74
2021/09/13 02:34:02;;;;;;;10.77;9.77;;;21.70;96.70;;;;;;4960400;28;20090;-74
2021/09/13 02:36:32;;;;;;;9.85;8.90;;;21.70;96.70;;;;;;4964881;28;20043;-74
2021/09/13 02:39:02;;;;;;;9.90;9.10;;;21.60;96.70;;;;;;4964509;28;20133;-74
2021/09/13 02:41:32;;;;;;;12.18;8.43;;;21.50;96.70;;;;;;4965147;28;20081;-74
2021/09/13 02:44:00;;;;;;;9.77;8.77;;;21.50;96.70;;;;;;4959757;28;20054;-74
2021/09/13 02:46:29;;;;;;;9.70;8.82;;;21.50;96.70;;;;;;4962986;28;20482;-74
2021/09/13 02:49:01;;;;;;;8.80;8.00;;;21.50;96.70;;;;;;4959334;28;20078;-74
2021/09/13 02:51:29;;;;;;;9.07;8.18;;;21.40;96.70;;;;;;4950884;28;20062;-74
2021/09/13 02:53:58;;;;;;;9.80;8.80;;;21.40;96.70;;;;;;4962037;28;20048;-73
2021/09/13 02:56:26;;;;;;;9.50;8.70;;;21.40;96.70;;;;;;4960397;28;20537;-74
2021/09/13 02:58:54;;;;;;;9.63;8.65;;;21.50;96.70;;;;;;4948734;28;20051;-74
2021/09/13 03:01:23;;;;;;;9.52;8.50;;;21.50;96.70;;;;;;4949077;28;20039;-73
2021/09/13 03:03:51;;;;;;;12.20;8.93;;;21.40;96.70;;;;;;4966027;28;20043;-73
2021/09/13 03:06:21;;;;;;;9.57;8.60;;;21.30;96.70;;;;;;4974409;28;20039;-73
2021/09/13 03:08:49;;;;;;;9.60;8.60;;;21.40;96.70;;;;;;4970786;28;20485;-74
2021/09/13 03:11:17;;;;;;;9.57;8.65;;;21.40;96.70;;;;;;4963805;28;20055;-74
2021/09/13 03:13:46;;;;;;;9.43;8.63;;;21.40;96.70;;;;;;4952715;28;20409;-74
2021/09/13 03:16:14;;;;;;;9.15;8.07;;;21.30;96.70;;;;;;4972129;28;20074;-74
2021/09/13 03:18:43;;;;;;;8.77;7.97;;;21.30;96.70;;;;;;4964581;28;20287;-74
2021/09/13 03:21:11;;;;;;;8.52;7.72;;;21.30;96.70;;;;;;4943478;28;20043;-73
2021/09/13 03:23:41;;;;;;;8.57;7.78;;;21.20;96.70;;;;;;4964467;28;20665;-74
2021/09/13 03:26:09;;;;;;;9.05;8.13;;;21.10;96.70;;;;;;4946909;28;20394;-74
2021/09/13 03:28:39;;;;;;;9.65;8.52;;;21.10;96.70;;;;;;4959648;28;20320;-73
2021/09/13 03:31:08;;;;;;;9.75;8.85;;;21.10;96.70;;;;;;4959386;28;20042;-74
2021/09/13 03:33:37;;;;;;;8.95;8.13;;;21.20;96.70;;;;;;4965089;28;20576;-73
2021/09/13 03:36:05;;;;;;;8.75;7.97;;;21.10;96.70;;;;;;4961364;28;20050;-74
2021/09/13 03:38:34;;;;;;;9.07;8.27;;;21.10;96.70;;;;;;4963489;28;20046;-73
2021/09/13 03:41:09;;;;;;;9.55;8.60;;;21.00;96.70;;;;;;4949200;28;20055;-73
2021/09/13 03:43:37;;;;;;;10.00;9.00;;;21.00;96.70;;;;;;4965008;28;20103;-73
2021/09/13 03:46:06;;;;;;;9.85;8.88;;;21.00;96.70;;;;;;4959023;28;20046;-73
2021/09/13 03:48:45;;;;;;;10.13;9.20;;;21.10;96.70;;;;;;4962554;28;20051;-74
2021/09/13 03:51:14;;;;;;;9.32;8.52;;;21.10;96.70;;;;;;4961652;28;20596;-74
2021/09/13 03:53:43;;;;;;;9.45;8.65;;;21.10;96.70;;;;;;4956981;28;20064;-74
2021/09/13 03:56:13;;;;;;;9.85;8.82;;;21.00;96.70;;;;;;4957902;28;20127;-73
2021/09/13 03:58:41;;;;;;;10.48;9.38;;;21.00;96.70;;;;;;4978714;28;20235;-74
2021/09/13 04:01:10;;;;;;;11.25;9.60;;;21.00;96.70;;;;;;4963188;28;20463;-74
2021/09/13 04:03:49;;;;;;;11.50;9.40;;;21.00;96.70;;;;;;4960652;28;20044;-74
2021/09/13 04:06:23;;;;;;;9.85;8.95;;;21.00;96.70;;;;;;4963922;28;20034;-73
2021/09/13 04:12:22;;;;;;;10.05;9.10;;;20.80;96.70;;;;;;4944808;28;20055;-74
2021/09/13 04:15:08;;;;;;;13.30;9.90;;;20.80;96.70;;;;;;4953383;28;20051;-73
2021/09/13 04:17:48;;;;;;;10.27;9.27;;;20.80;96.70;;;;;;4958173;28;20439;-73
2021/09/13 04:20:36;;;;;;;10.55;9.65;;;21.00;96.70;;;;;;4964676;28;20050;-74
2021/09/13 04:23:31;;;;;;;9.98;9.07;;;20.90;96.70;;;;;;4949749;28;20055;-74
2021/09/13 04:26:17;;;;;;;10.20;9.27;;;20.90;96.70;;;;;;4974885;28;20624;-74
2021/09/13 04:29:06;;;;;;;10.88;8.75;;;20.90;96.70;;;;;;4955951;28;20426;-74
2021/09/13 04:32:01;;;;;;;10.10;9.07;;;20.80;96.70;;;;;;4959437;28;20066;-74
2021/09/13 04:34:52;;;;;;;10.15;9.15;;;20.80;96.70;;;;;;4939769;28;20062;-74
2021/09/13 04:37:38;;;;;;;10.32;9.25;;;20.60;96.70;;;;;;4958571;28;20454;-73
2021/09/13 04:40:25;;;;;;;10.05;9.02;;;20.50;96.70;;;;;;4965297;28;20144;-73
2021/09/13 04:43:14;;;;;;;10.38;9.38;;;20.40;96.70;;;;;;4962919;28;20058;-73
2021/09/13 04:46:04;;;;;;;8.95;8.18;;;20.40;96.70;;;;;;4946893;28;20482;-73
2021/09/13 04:49:11;;;;;;;9.13;8.32;;;20.50;96.70;;;;;;4941176;29;20059;-73
2021/09/13 04:52:03;;;;;;;8.50;7.80;;;20.60;96.70;;;;;;4942296;28;20545;-73
2021/09/13 04:54:47;;;;;;;9.00;8.10;;;20.60;96.70;;;;;;4946546;28;20053;-74
2021/09/13 04:57:15;;;;;;;8.98;8.18;;;20.60;96.70;;;;;;4959217;28;20065;-73
2021/09/13 04:59:44;;;;;;;8.73;7.82;;;20.50;96.70;;;;;;4963161;28;20049;-73
2021/09/13 05:02:16;;;;;;;10.10;8.15;;;20.40;96.70;;;;;;4965996;28;20521;-73
2021/09/13 05:04:45;;;;;;;9.55;8.65;;;20.50;96.70;;;;;;4964101;28;20054;-73
2021/09/13 05:07:14;;;;;;;9.55;8.65;;;20.50;96.70;;;;;;4961305;28;20413;-73
2021/09/13 05:09:42;;;;;;;10.43;8.98;;;20.40;96.70;;;;;;4957902;28;20513;-73
2021/09/13 05:12:11;;;;;;;12.65;8.70;;;20.40;96.70;;;;;;4962076;28;20052;-74
2021/09/13 05:14:41;;;;;;;9.25;8.32;;;20.40;96.70;;;;;;4957845;28;20051;-74
2021/09/13 05:17:10;;;;;;;10.75;9.75;;;20.40;96.70;;;;;;4963823;28;20497;-73
2021/09/13 05:19:39;;;;;;;10.02;9.02;;;20.30;96.70;;;;;;4957802;28;20036;-74
2021/09/13 05:22:08;;;;;;;10.25;9.20;;;20.20;96.70;;;;;;4959227;28;20047;-74
2021/09/13 05:24:37;;;;;;;10.70;9.20;;;20.20;96.70;;;;;;4975185;28;20512;-73
2021/09/13 05:27:09;;;;;;;10.20;9.07;;;20.20;96.70;;;;;;4949707;28;20047;-74
2021/09/13 05:29:44;;;;;;;10.35;9.35;;;20.20;96.70;;;;;;4960889;28;20134;-74
2021/09/13 05:32:12;;;;;;;11.43;10.30;;;20.20;96.70;;;;;;4965163;28;20058;-74
2021/09/13 05:34:42;;;;;;;13.07;11.77;;;20.20;96.70;;;;;;4967580;28;20608;-73
2021/09/13 05:37:11;;;;;;;12.77;11.48;;;20.20;96.70;;;;;;4946508;28;20430;-74
2021/09/13 05:39:40;;;;;;;13.18;11.98;;;20.20;96.70;;;;;;4961538;28;20046;-73
2021/09/13 05:42:18;;;;;;;11.85;10.75;;;20.30;96.70;;;;;;4959006;28;20057;-74
2021/09/13 05:44:47;;;;;;;12.48;11.27;;;20.20;96.70;;;;;;4958007;28;20158;-73
2021/09/13 05:47:16;;;;;;;12.68;11.48;;;20.20;96.70;;;;;;4944575;28;20047;-74
2021/09/13 05:49:48;;;;;;;15.15;11.45;;;20.30;96.70;;;;;;4942253;28;20043;-74
2021/09/13 05:52:22;;;;;;;13.30;11.95;;;20.10;96.70;;;;;;4961504;28;20051;-74
2021/09/13 05:54:50;;;;;;;13.98;11.73;;;20.20;96.70;;;;;;4944325;28;20334;-73
2021/09/13 05:57:20;;;;;;;16.05;12.88;;;20.30;96.70;;;;;;4955218;28;20040;-74
2021/09/13 05:59:49;;;;;;;15.23;12.90;;;20.40;96.70;;;;;;4946425;28;20046;-73
2021/09/13 06:02:20;;;;;;;14.45;12.95;;;20.40;96.70;;;;;;4960252;28;20051;-73
2021/09/13 06:05:01;;;;;;;15.98;13.60;;;20.40;96.70;;;;;;4962706;28;20618;-73
2021/09/13 06:07:30;;;;;;;16.55;14.75;;;20.40;96.70;;;;;;4970187;28;20053;-74
2021/09/13 06:09:59;;;;;;;16.60;14.63;;;20.60;96.70;;;;;;4962619;28;20053;-73
2021/09/13 06:12:29;;;;;;;15.85;14.02;;;20.60;96.70;;;;;;4969377;28;20067;-74
2021/09/13 06:15:03;;;;;;;15.75;14.13;;;20.50;96.70;;;;;;4965514;28;20138;-74
2021/09/13 06:17:35;;;;;;;14.85;13.30;;;20.60;96.70;;;;;;4960707;28;20454;-74
2021/09/13 06:20:06;;;;;;;13.52;12.23;;;20.50;96.70;;;;;;4989693;28;20398;-74
2021/09/13 06:22:35;;;;;;;14.05;12.57;;;20.50;96.70;;;;;;4968546;28;20520;-74
2021/09/13 06:25:10;;;;;;;14.82;12.25;;;20.50;96.70;;;;;;4965629;28;20054;-73
2021/09/13 06:27:42;;;;;;;12.85;11.63;;;20.60;96.70;;;;;;4964373;28;20062;-74
2021/09/13 06:30:11;;;;;;;14.48;12.90;;;20.60;96.70;;;;;;4982514;28;20047;-74
2021/09/13 06:32:41;;;;;;;15.90;13.35;;;20.60;96.70;;;;;;4958073;28;20054;-74
2021/09/13 06:35:12;;;;;;;18.90;14.68;;;20.60;96.70;;;;;;4960686;28;20067;-74
2021/09/13 06:37:58;;;;;;;17.30;14.57;;;20.70;96.70;;;;;;4962683;28;20167;-74
2021/09/13 06:40:27;;;;;;;15.32;13.75;;;20.70;96.70;;;;;;4998352;28;20469;-74
2021/09/13 06:42:55;;;;;;;14.50;13.07;;;20.70;96.70;;;;;;4963659;28;20042;-73
2021/09/13 06:45:24;;;;;;;14.40;12.73;;;20.70;96.70;;;;;;4989508;28;20078;-74
2021/09/13 06:47:52;;;;;;;19.38;11.80;;;20.90;96.70;;;;;;4960384;28;20126;-74
2021/09/13 06:50:27;;;;;;;14.05;11.35;;;20.90;96.70;;;;;;4964597;28;20158;-73
2021/09/13 06:52:56;;;;;;;14.70;11.88;;;20.90;96.70;;;;;;4961639;28;20050;-74
2021/09/13 06:55:24;;;;;;;15.63;12.02;;;20.90;96.70;;;;;;4967027;28;20043;-74
2021/09/13 06:57:53;;;;;;;13.25;11.90;;;20.80;96.70;;;;;;4959592;28;20043;-74
2021/09/13 07:00:22;;;;;;;14.95;12.98;;;21.10;96.70;;;;;;4966845;28;20579;-73
2021/09/13 07:02:51;;;;;;;16.80;13.23;;;21.20;96.70;;;;;;4958388;28;20105;-74
2021/09/13 07:05:20;;;;;;;16.45;13.10;;;21.10;96.70;;;;;;4959978;28;20381;-73
2021/09/13 07:07:49;;;;;;;17.63;15.05;;;21.20;96.70;;;;;;4963121;28;20509;-74
2021/09/13 07:10:19;;;;;;;18.48;15.25;;;21.20;96.70;;;;;;4962321;28;20098;-74
2021/09/13 07:12:49;;;;;;;17.23;14.68;;;21.30;96.70;;;;;;4969900;28;20058;-74
2021/09/13 07:15:18;;;;;;;17.45;13.20;;;21.40;96.70;;;;;;4964712;28;20413;-74
2021/09/13 07:17:46;;;;;;;13.88;11.98;;;21.50;96.70;;;;;;4963587;28;20558;-74
2021/09/13 07:20:16;;;;;;;13.02;11.35;;;21.60;96.70;;;;;;4961548;28;20031;-74
2021/09/13 07:22:45;;;;;;;12.90;11.00;;;21.70;96.70;;;;;;4955884;28;20674;-74
2021/09/13 07:25:14;;;;;;;13.35;11.10;;;21.80;96.70;;;;;;4959346;28;20054;-74
2021/09/13 07:27:43;;;;;;;11.93;10.57;;;21.70;96.70;;;;;;4965172;28;20042;-74
2021/09/13 07:30:12;;;;;;;12.02;10.77;;;21.80;96.70;;;;;;4958867;28;20125;-73
2021/09/13 07:32:41;;;;;;;15.02;11.00;;;21.90;96.70;;;;;;4965062;28;20141;-74
2021/09/13 07:35:11;;;;;;;13.63;10.85;;;22.00;96.70;;;;;;4973193;28;20045;-74
2021/09/13 07:37:40;;;;;;;13.02;11.23;;;22.20;96.70;;;;;;4963995;28;20062;-74
2021/09/13 07:40:11;;;;;;;12.63;11.32;;;22.20;96.70;;;;;;4957598;28;20040;-74
2021/09/13 07:42:42;;;;;;;12.63;11.20;;;22.20;96.70;;;;;;4959631;28;20043;-74
2021/09/13 07:45:11;;;;;;;13.65;11.85;;;22.20;96.70;;;;;;4959951;28;20070;-74
2021/09/13 07:47:39;;;;;;;12.50;11.23;;;22.30;96.70;;;;;;4967579;28;20135;-74
2021/09/13 07:50:08;;;;;;;13.63;12.30;;;22.40;96.70;;;;;;4955208;28;20505;-74
2021/09/13 07:52:37;;;;;;;16.52;14.77;;;22.50;96.70;;;;;;4960596;28;20055;-74
2021/09/13 07:55:07;;;;;;;16.63;14.75;;;22.50;96.70;;;;;;4959525;28;20059;-73
2021/09/13 07:57:37;;;;;;;15.93;13.77;;;22.40;96.70;;;;;;4948279;28;20070;-74
2021/09/13 08:00:08;;;;;;;16.95;15.20;;;22.40;96.70;;;;;;4954182;28;20043;-74
2021/09/13 08:02:40;;;;;;;14.15;12.63;;;22.50;96.70;;;;;;4964972;28;20548;-73
2021/09/13 08:05:10;;;;;;;15.05;13.63;;;22.40;96.70;;;;;;4964894;28;20035;-74
2021/09/13 08:07:39;;;;;;;12.98;11.57;;;22.60;96.70;;;;;;4965222;28;20166;-74
2021/09/13 08:10:08;;;;;;;13.48;12.05;;;22.70;96.70;;;;;;4939320;28;20054;-74
2021/09/13 08:12:37;;;;;;;13.40;12.10;;;22.80;96.70;;;;;;4941921;28;20039;-74
2021/09/13 08:15:09;;;;;;;12.80;11.60;;;22.90;96.70;;;;;;4961250;28;20047;-74
2021/09/13 08:17:38;;;;;;;13.55;11.57;;;23.00;96.70;;;;;;4969505;28;20050;-73
2021/09/13 08:20:07;;;;;;;15.85;11.73;;;23.00;96.70;;;;;;4964370;28;20054;-74
2021/09/13 08:22:36;;;;;;;13.20;11.80;;;23.00;96.70;;;;;;4958147;28;20043;-74
2021/09/13 08:25:06;;;;;;;12.23;10.98;;;23.10;96.70;;;;;;4962448;28;20137;-74
2021/09/13 08:28:03;;;;;;;11.88;10.68;;;23.20;96.70;;;;;;4948614;28;20125;-74
2021/09/13 08:30:33;;;;;;;13.82;12.18;;;23.30;96.70;;;;;;4940179;28;20500;-74
2021/09/13 08:33:02;;;;;;;12.45;10.85;;;23.50;96.70;;;;;;4949230;28;20055;-73
2021/09/13 08:35:30;;;;;;;13.40;12.00;;;23.50;96.70;;;;;;4944621;28;20504;-74
2021/09/13 08:37:59;;;;;;;11.88;10.68;;;23.60;96.70;;;;;;4957688;28;20051;-74
2021/09/13 08:40:28;;;;;;;17.08;11.20;;;23.50;96.70;;;;;;4944148;28;20118;-73
2021/09/13 08:42:58;;;;;;;11.88;9.88;;;23.70;96.70;;;;;;4954560;28;20047;-74
2021/09/13 08:45:43;;;;;;;10.73;9.73;;;23.90;96.70;;;;;;4960119;28;20055;-74
2021/09/13 08:48:24;;;;;;;11.35;10.02;;;24.00;96.70;;;;;;4945412;28;20046;-74
2021/09/13 08:51:39;;;;;;;10.45;9.23;;;24.00;96.70;;;;;;4956831;28;20167;-73
2021/09/13 08:53:50;;;;;;;11.43;9.18;;;24.10;96.70;;;;;;4955066;28;20145;-74
2021/09/13 08:56:19;;;;;;;14.45;9.75;;;24.30;96.70;;;;;;4939478;28;20150;-74
2021/09/13 08:58:47;;;;;;;10.15;8.85;;;24.40;96.70;;;;;;4956968;28;20548;-74
2021/09/13 09:01:17;;;;;;;11.32;10.05;;;24.50;96.70;;;;;;4922940;28;20162;-74
2021/09/13 09:03:47;;;;;;;11.00;9.90;;;24.60;96.70;;;;;;4941828;28;20105;-74
2021/09/13 09:06:29;;;;;;;9.85;8.52;;;24.70;96.70;;;;;;4965047;28;20077;-74
2021/09/13 09:09:00;;;;;;;10.25;9.15;;;24.70;96.70;;;;;;4962308;28;20512;-74
2021/09/13 09:11:56;;;;;;;12.48;10.73;;;24.90;96.70;;;;;;4960309;28;20054;-74
2021/09/13 09:14:31;;;;;;;14.10;9.90;;;24.90;96.70;;;;;;4955916;28;20053;-74
2021/09/13 09:17:03;;;;;;;12.65;9.93;;;25.00;96.70;;;;;;4954801;28;20094;-74
2021/09/13 09:19:33;;;;;;;12.70;9.45;;;25.10;96.70;;;;;;4959264;28;20327;-74
2021/09/13 09:22:19;;;;;;;15.25;10.55;;;25.20;96.70;;;;;;4962300;28;20564;-74
2021/09/13 09:24:48;;;;;;;13.35;10.98;;;25.30;96.70;;;;;;4967945;28;20050;-74
2021/09/13 09:27:17;;;;;;;14.68;9.95;;;25.40;96.70;;;;;;4960979;28;20061;-74
2021/09/13 09:29:46;;;;;;;10.65;9.55;;;25.50;96.70;;;;;;4948907;28;20055;-74
2021/09/13 09:32:24;;;;;;;11.30;9.10;;;25.50;96.70;;;;;;4959357;28;20622;-73
2021/09/13 09:34:55;;;;;;;13.23;10.13;;;25.60;96.70;;;;;;4957299;28;20482;-74
2021/09/13 09:37:25;;;;;;;12.98;8.88;;;25.60;96.70;;;;;;4956733;28;20050;-74
2021/09/13 09:39:56;;;;;;;13.80;9.40;;;25.70;96.70;;;;;;4959102;28;20046;-74
2021/09/13 09:42:30;;;;;;;9.10;8.18;;;25.80;96.70;;;;;;4962983;28;20113;-74
2021/09/13 09:45:00;;;;;;;8.68;7.85;;;26.00;96.70;;;;;;4963223;28;20141;-73
2021/09/13 09:47:28;;;;;;;12.90;9.00;;;26.10;96.70;;;;;;4962403;28;20043;-74
2021/09/13 09:50:00;;;;;;;9.93;9.00;;;26.20;96.70;;;;;;4961746;28;20044;-74
2021/09/13 09:52:31;;;;;;;11.85;8.40;;;26.30;96.70;;;;;;4961970;28;20046;-74
2021/09/13 09:55:17;;;;;;;12.45;9.30;;;26.30;96.70;;;;;;4954776;28;20043;-74
2021/09/13 09:58:09;;;;;;;9.95;8.75;;;26.50;96.70;;;;;;4955823;28;20046;-74
2021/09/13 10:00:38;;;;;;;9.40;8.10;;;26.60;96.70;;;;;;4962375;28;20057;-74
2021/09/13 10:03:07;;;;;;;9.82;8.93;;;26.70;96.70;;;;;;4958140;28;20038;-74
2021/09/13 10:05:37;;;;;;;9.63;8.63;;;26.80;96.70;;;;;;4958774;28;20047;-74
2021/09/13 10:08:07;;;;;;;9.38;8.38;;;26.90;96.70;;;;;;4958029;28;20401;-74
2021/09/13 10:10:35;;;;;;;9.18;8.23;;;27.00;96.70;;;;;;4962141;28;20051;-74
2021/09/13 10:13:04;;;;;;;9.20;8.15;;;27.00;96.70;;;;;;4966355;28;20043;-74
2021/09/13 10:15:32;;;;;;;10.40;8.90;;;27.10;96.70;;;;;;4961549;28;20050;-74
2021/09/13 10:18:03;;;;;;;10.20;8.27;;;27.20;96.70;;;;;;4957713;28;20051;-74
2021/09/13 10:20:32;;;;;;;9.10;8.20;;;27.30;96.70;;;;;;4959772;28;20043;-74
2021/09/13 10:23:02;;;;;;;8.43;7.55;;;27.30;96.70;;;;;;4959728;28;20039;-74
2021/09/13 10:25:31;;;;;;;9.07;8.20;;;27.40;96.70;;;;;;4960657;28;20038;-74
2021/09/13 10:28:05;;;;;;;8.65;7.85;;;27.50;96.70;;;;;;4972797;28;20038;-74
2021/09/13 10:30:49;;;;;;;10.48;8.35;;;27.60;96.70;;;;;;4974159;28;20055;-74
2021/09/13 10:33:29;;;;;;;9.98;7.82;;;27.50;96.70;;;;;;4961086;28;20044;-74
2021/09/13 10:35:59;;;;;;;7.43;6.70;;;27.50;96.70;;;;;;4977622;28;20085;-74
2021/09/13 10:38:47;;;;;;;8.07;7.32;;;27.70;96.70;;;;;;4959189;28;20504;-74
2021/09/13 10:41:49;;;;;;;8.65;7.72;;;27.70;95.40;;;;;;4962612;28;20053;-74
2021/09/13 10:44:30;;;;;;;9.85;8.07;;;27.90;95.50;;;;;;4943295;28;20055;-74
2021/09/13 10:47:03;;;;;;;9.80;7.95;;;27.80;95.50;;;;;;4962518;28;20071;-74
2021/09/13 10:49:33;;;;;;;8.70;7.82;;;27.90;95.70;;;;;;4966178;28;20039;-74
2021/09/13 10:52:35;;;;;;;8.77;7.85;;;28.10;95.40;;;;;;4956612;28;20181;-74
2021/09/13 10:55:19;;;;;;;9.27;8.38;;;28.10;95.60;;;;;;4993512;28;20053;-74
2021/09/13 10:58:18;;;;;;;9.05;8.15;;;28.30;95.20;;;;;;4961836;28;20070;-74
2021/09/13 11:01:00;;;;;;;9.23;8.32;;;28.50;95.10;;;;;;4904438;28;20061;-74
2021/09/13 11:03:43;;;;;;;8.45;7.30;;;28.70;95.10;;;;;;4975937;28;20066;-75
2021/09/13 11:06:48;;;;;;;11.52;8.10;;;28.90;94.80;;;;;;4996319;28;20498;-74
2021/09/13 11:09:21;;;;;;;10.23;8.77;;;28.80;95.40;;;;;;4965219;28;20039;-74
2021/09/13 11:11:58;;;;;;;8.68;7.85;;;29.00;96.00;;;;;;4963983;28;20042;-74
2021/09/13 11:14:29;;;;;;;8.63;7.75;;;29.10;95.30;;;;;;4961337;28;20565;-74
2021/09/13 11:17:01;;;;;;;8.00;6.63;;;29.30;94.00;;;;;;4964150;28;20508;-74
2021/09/13 11:19:32;;;;;;;7.85;7.18;;;29.30;93.20;;;;;;4958905;28;20125;-74
2021/09/13 11:22:03;;;;;;;7.13;6.53;;;29.30;93.40;;;;;;4961995;28;20051;-73
2021/09/13 11:24:37;;;;;;;8.95;7.38;;;29.30;93.90;;;;;;4965229;28;20455;-74
2021/09/13 11:27:13;;;;;;;10.13;7.65;;;29.40;93.10;;;;;;4961903;28;20047;-74
2021/09/13 11:29:43;;;;;;;7.65;6.90;;;29.40;92.60;;;;;;4948362;28;20517;-74
2021/09/13 11:32:13;;;;;;;7.90;7.20;;;29.50;92.70;;;;;;4960518;28;20093;-74
2021/09/13 11:34:44;;;;;;;6.82;6.15;;;29.50;91.60;;;;;;4958890;28;20105;-74
2021/09/13 11:37:33;;;;;;;6.60;6.10;;;29.60;92.30;;;;;;4963842;28;20053;-74
2021/09/13 11:40:25;;;;;;;8.02;6.35;;;29.90;91.80;;;;;;4959733;28;20035;-74
2021/09/13 11:42:55;;;;;;;8.73;6.22;;;29.90;91.20;;;;;;4963244;28;20049;-74
2021/09/13 11:45:25;;;;;;;6.57;5.80;;;29.90;91.20;;;;;;4962508;28;20070;-74
2021/09/13 11:48:03;;;;;;;5.95;5.32;;;30.00;88.80;;;;;;4957281;28;20051;-74
2021/09/13 11:50:35;;;;;;;6.20;5.70;;;30.00;86.40;;;;;;4947644;28;20055;-74
2021/09/13 11:53:13;;;;;;;5.68;5.10;;;30.10;88.30;;;;;;4962382;28;20066;-73
2021/09/13 11:55:43;;;;;;;6.10;5.50;;;30.00;87.60;;;;;;4959926;28;20431;-74
2021/09/13 11:58:16;;;;;;;5.72;5.10;;;30.00;89.40;;;;;;4965331;28;20493;-74
2021/09/13 12:00:45;;;;;;;8.32;5.03;;;30.20;87.40;;;;;;4962179;28;20046;-74
2021/09/13 12:03:14;;;;;;;5.82;5.20;;;30.30;87.40;;;;;;4963738;28;20050;-74
2021/09/13 12:05:43;;;;;;;6.13;5.45;;;30.40;87.40;;;;;;4958529;28;20078;-74
2021/09/13 12:08:16;;;;;;;5.75;5.25;;;30.60;86.20;;;;;;4961188;28;20039;-74
2021/09/13 12:10:45;;;;;;;6.00;5.40;;;30.60;86.60;;;;;;4960274;28;20573;-74
2021/09/13 12:13:17;;;;;;;6.22;5.68;;;30.70;87.00;;;;;;4961910;28;20078;-74
2021/09/13 12:15:51;;;;;;;7.45;5.70;;;30.70;88.10;;;;;;4973030;28;20039;-74
2021/09/13 12:18:21;;;;;;;6.10;5.47;;;30.80;86.20;;;;;;4961537;28;20051;-74
2021/09/13 12:20:51;;;;;;;7.05;6.35;;;30.90;86.90;;;;;;4960005;28;20436;-74
2021/09/13 12:23:22;;;;;;;7.00;6.32;;;30.90;86.40;;;;;;4963981;28;20150;-74
2021/09/13 12:25:53;;;;;;;6.25;5.75;;;30.90;85.70;;;;;;4965359;28;20061;-74
2021/09/13 12:28:24;;;;;;;6.30;5.60;;;30.90;84.60;;;;;;4960154;28;20548;-74
2021/09/13 12:30:55;;;;;;;6.55;5.85;;;30.90;85.50;;;;;;4964743;28;20050;-74
2021/09/13 12:33:35;;;;;;;6.57;5.30;;;31.10;86.10;;;;;;4958305;28;20047;-74
2021/09/13 12:36:13;;;;;;;7.57;5.78;;;31.10;85.70;;;;;;4958246;28;20131;-74
2021/09/13 12:38:43;;;;;;;6.18;5.68;;;31.20;85.70;;;;;;4959197;28;20153;-74
2021/09/13 12:41:12;;;;;;;8.07;5.70;;;31.10;84.20;;;;;;4959677;28;20046;-74
2021/09/13 12:43:45;;;;;;;6.57;5.93;;;31.00;84.50;;;;;;4960111;28;20421;-74
2021/09/13 12:46:15;;;;;;;6.18;5.68;;;31.00;84.70;;;;;;4959171;28;20046;-74
2021/09/13 12:48:45;;;;;;;7.22;5.32;;;31.10;84.30;;;;;;4960509;28;20070;-74
2021/09/13 12:51:15;;;;;;;6.38;5.78;;;31.20;84.10;;;;;;4969284;28;20457;-74
2021/09/13 12:53:53;;;;;;;5.95;5.45;;;31.10;83.20;;;;;;4960370;28;20047;-74
2021/09/13 12:56:22;;;;;;;7.50;5.90;;;31.10;83.60;;;;;;4960365;28;20049;-74
2021/09/13 12:58:56;;;;;;;5.85;5.35;;;31.20;82.70;;;;;;4960526;28;20461;-74
2021/09/13 13:01:29;;;;;;;6.28;5.68;;;31.20;82.10;;;;;;4962225;28;20042;-74
2021/09/13 13:04:02;;;;;;;6.22;5.72;;;31.20;82.00;;;;;;4962840;28;20149;-74
2021/09/13 13:06:31;;;;;;;5.97;5.47;;;31.10;79.70;;;;;;4960757;28;20101;-74
2021/09/13 13:09:00;;;;;;;5.65;5.15;;;31.20;80.90;;;;;;4959901;28;20046;-74